EFMA/MHQ METAR and TAF weather

Enter ICAO airport designator
Station Type Date Time Source
EFMA METAR 2019/05/19 20:20 UTC NOAA

EFMA 192020Z AUTO VRB01KT CAVOK 13/09 Q1014


Station Type Date Time Source
EFMA Decoded METAR 2019/05/19 20:20 UTC NOAA

Mariehamn / Aland Island, Finland (EFMA) 60-07N 019-54E
May 19, 2019 - 04:20 PM EDT / 2019.05.19 2020 UTC
Wind: Variable at 1 MPH (1 KT):0
Visibility: greater than 7 mile(s):0
Temperature: 55 F (13 C)
Dew Point: 48 F (9 C)
Relative Humidity: 76%
Pressure (altimeter): 29.94 in. Hg (1014 hPa)
ob: EFMA 192020Z AUTO VRB01KT CAVOK 13/09 Q1014
cycle: 20

Station Type Date Time Source
EFMA TAF 2014/05/01 21:18 UTC NOAA

TAF TAF EFMA 302037Z 3021/0106 08008KT CAVOK
TEMPO 3023/0101 02010KT 6000 RASN
BECMG 0101/0103 01012KT 4000 RASN BKN010 OVC025

Example: see airport list